createdAt,value
2024-04-12T00:02:16.292Z,53.35
2024-04-12T00:07:23.549Z,53.48
2024-04-12T00:12:30.644Z,53.39
2024-04-12T00:17:35.999Z,53.28
2024-04-12T00:22:44.682Z,53.36
2024-04-12T00:27:49.239Z,53.00
2024-04-12T00:32:58.742Z,52.95
2024-04-12T00:38:13.796Z,53.68
2024-04-12T00:43:20.104Z,53.56
2024-04-12T00:48:27.842Z,53.47
2024-04-12T00:53:35.840Z,53.98
2024-04-12T00:58:42.939Z,54.19
2024-04-12T01:03:54.672Z,54.47
2024-04-12T01:09:12.263Z,54.43
2024-04-12T01:14:17.919Z,54.43
2024-04-12T01:19:22.293Z,54.22
2024-04-12T01:24:30.790Z,54.56
2024-04-12T01:29:37.797Z,54.65
2024-04-12T01:34:48.312Z,53.96
2024-04-12T01:39:53.479Z,54.35
2024-04-12T01:45:18.565Z,54.96
2024-04-12T01:50:25.356Z,54.81
2024-04-12T01:55:33.752Z,55.26
2024-04-12T02:00:41.528Z,55.58
2024-04-12T02:05:45.942Z,55.50
2024-04-12T02:10:55.147Z,55.29
2024-04-12T02:16:02.721Z,55.24
2024-04-12T02:21:11.575Z,54.77
2024-04-12T02:26:16.636Z,54.97
2024-04-12T02:31:23.876Z,55.03
2024-04-12T02:36:32.116Z,55.06
2024-04-12T02:41:39.258Z,55.08
2024-04-12T02:46:46.404Z,54.98
2024-04-12T02:51:52.300Z,55.06
2024-04-12T02:56:58.290Z,55.20
2024-04-12T03:02:06.037Z,54.87
2024-04-12T03:07:13.474Z,54.81
2024-04-12T03:12:17.909Z,54.77
2024-04-12T03:17:24.923Z,54.68
2024-04-12T03:22:29.777Z,55.02
2024-04-12T03:27:34.164Z,54.47
2024-04-12T03:32:45.760Z,54.94
2024-04-12T03:38:11.034Z,54.46
2024-04-12T03:43:15.488Z,54.66
2024-04-12T03:48:25.850Z,55.27
2024-04-12T03:53:32.121Z,55.26
2024-04-12T03:58:36.554Z,55.46
2024-04-12T04:03:50.606Z,55.56
2024-04-12T04:08:55.240Z,55.08
2024-04-12T04:13:59.670Z,55.53
2024-04-12T04:19:06.832Z,55.53
2024-04-12T04:24:16.149Z,55.80
2024-04-12T04:29:20.684Z,55.34
2024-04-12T04:34:28.516Z,55.27
2024-04-12T04:39:34.182Z,55.61
2024-04-12T04:44:39.327Z,55.36
2024-04-12T04:49:46.532Z,55.16
2024-04-12T04:54:50.917Z,55.08
2024-04-12T05:00:07.261Z,55.42
2024-04-12T05:05:14.370Z,56.00
2024-04-12T05:10:19.036Z,55.88
2024-04-12T05:15:50.934Z,56.34
2024-04-12T05:20:58.874Z,56.67
2024-04-12T05:26:03.366Z,56.81
2024-04-12T05:31:13.027Z,56.39
2024-04-12T05:36:22.062Z,57.03
2024-04-12T05:41:33.435Z,56.72
2024-04-12T05:46:40.405Z,56.88
2024-04-12T05:51:48.506Z,57.04
2024-04-12T05:56:54.086Z,57.60
2024-04-12T06:01:58.509Z,57.21
2024-04-12T06:07:12.541Z,57.60
2024-04-12T06:12:17.779Z,58.01
2024-04-12T06:17:24.863Z,58.10
2024-04-12T06:22:32.714Z,58.46
2024-04-12T06:27:37.186Z,58.34
2024-04-12T06:32:41.837Z,58.86
2024-04-12T06:37:51.623Z,59.28
2024-04-12T06:43:09.609Z,60.24
2024-04-12T06:48:18.810Z,60.50
2024-04-12T06:53:26.197Z,61.56
2024-04-12T06:58:30.664Z,62.11
2024-04-12T07:03:35.996Z,61.91
2024-04-12T07:08:51.041Z,60.07
2024-04-12T07:13:55.627Z,59.32
2024-04-12T07:19:02.041Z,58.24
2024-04-12T07:24:09.606Z,57.68
2024-04-12T07:29:14.484Z,56.33
2024-04-12T07:34:19.142Z,55.89
2024-04-12T07:39:26.178Z,55.00
2024-04-12T07:44:32.411Z,54.46
2024-04-12T07:49:49.506Z,52.78
2024-04-12T07:54:56.749Z,53.64
2024-04-12T08:00:11.004Z,53.12
2024-04-12T08:05:17.803Z,52.90
2024-04-12T08:10:30.805Z,53.12
2024-04-12T08:15:41.827Z,51.75
2024-04-12T08:20:48.160Z,52.61
2024-04-12T08:25:55.274Z,52.32
2024-04-12T08:31:06.997Z,53.09
2024-04-12T08:36:15.521Z,53.07
2024-04-12T08:41:22.823Z,52.42
2024-04-12T08:46:29.360Z,51.75
2024-04-12T08:51:35.978Z,50.14
2024-04-12T08:56:47.140Z,50.09
2024-04-12T09:01:53.188Z,50.12
2024-04-12T09:06:59.518Z,48.79
2024-04-12T09:12:13.846Z,46.56
2024-04-12T09:17:25.497Z,47.39
2024-04-12T09:22:31.403Z,46.91
2024-04-12T09:27:45.265Z,45.07
2024-04-12T09:33:01.860Z,45.33
2024-04-12T09:38:17.396Z,44.22
2024-04-12T09:43:37.793Z,44.29
2024-04-12T09:48:59.641Z,43.88
2024-04-12T09:54:19.996Z,44.22
2024-04-12T09:59:47.721Z,42.90
2024-04-12T10:05:23.457Z,42.66
2024-04-12T10:10:45.738Z,43.67
2024-04-12T10:16:13.899Z,42.82
2024-04-12T10:21:34.927Z,42.35
2024-04-12T10:26:56.841Z,41.77
2024-04-12T10:32:19.985Z,41.83
2024-04-12T10:37:30.739Z,41.57
2024-04-12T10:42:35.375Z,42.39
2024-04-12T10:47:46.028Z,42.21
2024-04-12T10:52:50.634Z,41.40
2024-04-12T10:57:57.771Z,40.43
2024-04-12T11:03:22.011Z,40.90
2024-04-12T11:08:29.281Z,40.57
2024-04-12T11:13:37.335Z,40.46
2024-04-12T11:19:00.924Z,39.06
2024-04-12T11:24:21.685Z,39.32
2024-04-12T11:29:42.131Z,38.47
2024-04-12T11:34:49.233Z,37.41
2024-04-12T11:39:58.070Z,38.90
2024-04-12T11:45:02.613Z,38.18
2024-04-12T11:50:11.976Z,38.81
2024-04-12T11:55:17.406Z,37.68
2024-04-12T12:00:22.077Z,36.02
2024-04-12T12:05:30.307Z,36.25
2024-04-12T12:10:35.991Z,36.65
2024-04-12T12:15:43.365Z,35.61
2024-04-12T12:20:50.554Z,36.22
2024-04-12T12:25:55.340Z,35.65
2024-04-12T12:30:59.953Z,36.23
2024-04-12T12:36:07.879Z,36.04
2024-04-12T12:41:13.417Z,34.43
2024-04-12T12:46:17.933Z,35.25
2024-04-12T12:51:27.740Z,33.74
2024-04-12T12:56:32.581Z,33.93
2024-04-12T13:01:42.774Z,33.64
2024-04-12T13:06:50.758Z,34.12
2024-04-12T13:11:57.374Z,34.08
2024-04-12T13:17:04.093Z,34.32
2024-04-12T13:22:13.356Z,34.25
2024-04-12T13:27:22.823Z,34.55
2024-04-12T13:32:27.645Z,33.98
2024-04-12T13:37:34.763Z,33.91
2024-04-12T13:42:40.730Z,33.94
2024-04-12T13:48:01.591Z,34.79
2024-04-12T13:53:11.979Z,32.85
2024-04-12T13:58:16.728Z,34.08
2024-04-12T14:03:25.469Z,33.67
2024-04-12T14:08:33.721Z,32.68
2024-04-12T14:13:38.000Z,33.21
2024-04-12T14:18:42.675Z,32.87
2024-04-12T14:23:49.899Z,34.67
2024-04-12T14:28:55.067Z,34.03
2024-04-12T14:33:59.931Z,32.79
2024-04-12T14:39:16.973Z,32.08
2024-04-12T14:44:21.785Z,32.46
2024-04-12T14:49:26.673Z,32.28
2024-04-12T14:54:34.167Z,32.04
2024-04-12T14:59:38.647Z,32.42
2024-04-12T15:04:58.882Z,32.46
2024-04-12T15:10:23.336Z,33.58
2024-04-12T15:15:43.976Z,31.63
2024-04-12T15:21:04.211Z,31.71
2024-04-12T15:26:27.820Z,31.37
2024-04-12T15:31:49.094Z,31.83
2024-04-12T15:37:09.507Z,31.09
2024-04-12T15:42:32.560Z,31.49
2024-04-12T15:47:34.626Z,30.00
2024-04-12T15:52:41.448Z,29.98
2024-04-12T15:58:04.514Z,29.18
2024-04-12T16:03:25.463Z,28.11
2024-04-12T16:08:48.281Z,27.63
2024-04-12T16:13:55.447Z,27.00
2024-04-12T16:19:00.018Z,26.77
2024-04-12T16:24:04.587Z,25.77
2024-04-12T16:29:11.783Z,25.72
2024-04-12T16:34:16.679Z,25.46
2024-04-12T16:39:21.456Z,25.64
2024-04-12T16:44:29.084Z,25.16
2024-04-12T16:49:33.506Z,24.95
2024-04-12T16:54:37.975Z,24.07
2024-04-12T16:59:45.277Z,25.44
2024-04-12T17:04:50.197Z,27.01
2024-04-12T17:09:54.691Z,27.86
2024-04-12T17:15:01.739Z,28.53
2024-04-12T17:20:08.003Z,29.04
2024-04-12T17:25:13.463Z,29.74
2024-04-12T17:30:22.539Z,30.20
2024-04-12T17:35:27.043Z,30.75
2024-04-12T17:40:31.983Z,31.03
2024-04-12T17:45:38.935Z,31.94
2024-04-12T17:50:43.322Z,32.36
2024-04-12T17:55:47.705Z,32.95
2024-04-12T18:01:02.942Z,34.18
2024-04-12T18:06:08.047Z,34.94
2024-04-12T18:11:13.203Z,35.46
2024-04-12T18:16:21.264Z,35.64
2024-04-12T18:21:26.142Z,36.14
2024-04-12T18:26:30.619Z,36.64
2024-04-12T18:31:38.085Z,36.70
2024-04-12T18:36:51.848Z,37.68
2024-04-12T18:42:12.376Z,38.58
2024-04-12T18:47:20.548Z,39.27
2024-04-12T18:52:26.157Z,39.87
2024-04-12T18:57:30.707Z,39.59
2024-04-12T19:02:38.777Z,40.09
2024-04-12T19:07:43.606Z,40.07
2024-04-12T19:12:48.010Z,40.24
2024-04-12T19:17:55.153Z,40.36
2024-04-12T19:23:00.796Z,41.20
2024-04-12T19:28:06.086Z,41.31
2024-04-12T19:33:13.279Z,41.51
2024-04-12T19:38:19.146Z,42.28
2024-04-12T19:43:23.597Z,42.20
2024-04-12T19:48:32.053Z,42.94
2024-04-12T19:53:37.820Z,43.53
2024-04-12T19:58:42.253Z,43.58
2024-04-12T20:03:49.526Z,43.86
2024-04-12T20:08:54.039Z,43.43
2024-04-12T20:13:58.452Z,43.69
2024-04-12T20:19:05.618Z,43.71
2024-04-12T20:24:10.578Z,43.85
2024-04-12T20:29:17.823Z,44.06
2024-04-12T20:34:48.186Z,44.68
2024-04-12T20:39:55.511Z,44.97
2024-04-12T20:45:00.532Z,44.83
2024-04-12T20:50:08.072Z,45.10
2024-04-12T20:55:14.061Z,45.40
2024-04-12T21:00:22.356Z,45.46
2024-04-12T21:05:30.083Z,45.60
2024-04-12T21:10:34.456Z,45.95
2024-04-12T21:15:38.929Z,45.76
2024-04-12T21:20:45.991Z,46.31
2024-04-12T21:25:56.998Z,46.68
2024-04-12T21:31:01.406Z,46.47
2024-04-12T21:36:09.355Z,46.75
2024-04-12T21:41:16.851Z,46.68
2024-04-12T21:46:23.609Z,46.76
2024-04-12T21:51:32.283Z,46.77
2024-04-12T21:56:36.726Z,47.34
2024-04-12T22:01:41.118Z,47.59
2024-04-12T22:06:48.063Z,47.97
2024-04-12T22:11:52.426Z,47.89
2024-04-12T22:16:56.808Z,47.71
2024-04-12T22:22:03.779Z,48.21
2024-04-12T22:27:08.609Z,48.11
2024-04-12T22:32:13.072Z,48.27
2024-04-12T22:37:20.983Z,48.13
2024-04-12T22:42:25.406Z,48.52
2024-04-12T22:47:29.822Z,48.88
2024-04-12T22:52:37.114Z,48.57
2024-04-12T22:57:44.365Z,48.90
2024-04-12T23:02:49.115Z,49.39
2024-04-12T23:07:56.236Z,49.75
2024-04-12T23:13:00.679Z,50.04
2024-04-12T23:18:05.159Z,50.18
2024-04-12T23:23:12.283Z,50.09
2024-04-12T23:28:16.658Z,50.20
2024-04-12T23:33:21.068Z,50.43
2024-04-12T23:38:28.062Z,50.16
2024-04-12T23:43:32.423Z,50.43
2024-04-12T23:48:37.045Z,50.85
2024-04-12T23:53:44.109Z,50.71
2024-04-12T23:58:48.485Z,50.37
